createdAt,value
2023-05-17T00:00:16.580Z,76.7
2023-05-17T00:01:17.135Z,76.5
2023-05-17T00:02:17.011Z,76.6
2023-05-17T00:03:16.608Z,76.7
2023-05-17T00:04:17.226Z,76.9
2023-05-17T00:05:16.857Z,76.7
2023-05-17T00:06:17.484Z,76.7
2023-05-17T00:07:17.095Z,76.8
2023-05-17T00:08:16.703Z,76.7
2023-05-17T00:09:17.270Z,76.7
2023-05-17T00:10:16.861Z,76.5
2023-05-17T00:11:17.437Z,76.6
2023-05-17T00:12:17.514Z,76.7
2023-05-17T00:13:17.050Z,76.8
2023-05-17T00:14:16.618Z,76.7
2023-05-17T00:15:17.177Z,77.0
2023-05-17T00:16:16.768Z,76.9
2023-05-17T00:17:17.297Z,76.9
2023-05-17T00:18:17.055Z,76.8
2023-05-17T00:19:16.984Z,76.8
2023-05-17T00:20:16.631Z,76.8
2023-05-17T00:21:17.309Z,76.7
2023-05-17T00:22:16.882Z,76.7
2023-05-17T00:23:17.488Z,76.9
2023-05-17T00:24:17.050Z,76.9
2023-05-17T00:25:16.630Z,76.9
2023-05-17T00:26:17.172Z,76.9
2023-05-17T00:27:16.739Z,77.0
2023-05-17T00:28:17.283Z,77.2
2023-05-17T00:29:16.831Z,77.2
2023-05-17T00:30:17.374Z,77.2
2023-05-17T00:31:16.939Z,77.1
2023-05-17T00:32:16.690Z,77.2
2023-05-17T00:33:17.262Z,77.2
2023-05-17T00:34:16.833Z,77.3
2023-05-17T00:35:17.601Z,77.3
2023-05-17T00:36:17.209Z,77.6
2023-05-17T00:37:16.745Z,77.4
2023-05-17T00:38:17.334Z,77.5
2023-05-17T00:39:16.882Z,77.6
2023-05-17T00:40:17.525Z,77.6
2023-05-17T00:41:17.090Z,77.6
2023-05-17T00:42:16.771Z,77.7
2023-05-17T00:43:17.313Z,77.6
2023-05-17T00:44:16.840Z,77.7
2023-05-17T00:45:17.434Z,77.9
2023-05-17T00:46:16.999Z,78.1
2023-05-17T00:47:16.585Z,78.0
2023-05-17T00:48:17.422Z,78.0
2023-05-17T00:49:17.033Z,78.1
2023-05-17T00:50:16.611Z,78.0
2023-05-17T00:51:17.190Z,78.1
2023-05-17T00:52:17.124Z,78.2
2023-05-17T00:53:16.762Z,78.0
2023-05-17T00:54:17.339Z,78.1
2023-05-17T00:55:16.883Z,78.0
2023-05-17T00:56:17.408Z,78.1
2023-05-17T00:57:16.975Z,78.2
2023-05-17T00:58:16.549Z,78.4
2023-05-17T00:59:17.109Z,78.1
2023-05-17T01:00:16.712Z,78.1
2023-05-17T01:01:17.422Z,78.1
2023-05-17T01:02:17.321Z,78.3
2023-05-17T01:03:17.137Z,78.4
2023-05-17T01:04:16.934Z,78.1
2023-05-17T01:05:16.576Z,78.1
2023-05-17T01:06:17.108Z,78.0
2023-05-17T01:07:16.671Z,78.0
2023-05-17T01:08:17.410Z,77.9
2023-05-17T01:09:17.076Z,77.8
2023-05-17T01:10:16.655Z,77.7
2023-05-17T01:11:17.281Z,77.9
2023-05-17T01:12:16.935Z,78.0
2023-05-17T01:13:17.518Z,78.1
2023-05-17T01:14:17.049Z,78.0
2023-05-17T01:15:16.659Z,78.1
2023-05-17T01:16:17.210Z,77.9
2023-05-17T01:17:16.817Z,77.9
2023-05-17T01:18:17.726Z,77.9
2023-05-17T01:19:17.656Z,78.0
2023-05-17T01:20:17.323Z,78.0
2023-05-17T01:21:16.936Z,78.8
2023-05-17T01:22:16.739Z,78.7
2023-05-17T01:23:17.318Z,78.4
2023-05-17T01:24:16.861Z,78.7
2023-05-17T01:25:17.423Z,78.5
2023-05-17T01:26:17.064Z,78.5
2023-05-17T01:27:16.624Z,78.4
2023-05-17T01:28:17.198Z,78.3
2023-05-17T01:29:16.759Z,78.4
2023-05-17T01:30:17.333Z,78.4
2023-05-17T01:31:16.879Z,78.5
2023-05-17T01:32:16.644Z,78.5
2023-05-17T01:33:17.456Z,78.7
2023-05-17T01:34:17.076Z,78.7
2023-05-17T01:35:16.638Z,79.3
2023-05-17T01:36:17.196Z,78.9
2023-05-17T01:37:16.773Z,79.1
2023-05-17T01:38:17.323Z,79.3
2023-05-17T01:39:16.976Z,79.4
2023-05-17T01:40:16.527Z,79.3
2023-05-17T01:41:17.089Z,79.2
2023-05-17T01:42:17.086Z,79.6
2023-05-17T01:43:16.668Z,79.7
2023-05-17T01:44:17.258Z,80.0
2023-05-17T01:45:16.845Z,79.7
2023-05-17T01:46:17.463Z,80.3
2023-05-17T01:47:17.028Z,80.0
2023-05-17T01:48:16.958Z,79.8
2023-05-17T01:49:16.677Z,80.0
2023-05-17T01:50:17.313Z,79.9
2023-05-17T01:51:16.838Z,80.0
2023-05-17T01:52:17.162Z,80.5
2023-05-17T01:53:16.739Z,80.8
2023-05-17T01:54:17.265Z,80.8
2023-05-17T01:55:16.881Z,81.0
2023-05-17T01:56:18.098Z,81.0
2023-05-17T01:57:16.695Z,81.4
2023-05-17T01:58:17.360Z,81.6
2023-05-17T01:59:16.973Z,81.7
2023-05-17T02:00:16.552Z,81.8
2023-05-17T02:01:17.132Z,82.0
2023-05-17T02:02:16.935Z,82.0
2023-05-17T02:03:17.638Z,82.1
2023-05-17T02:04:17.477Z,82.3
2023-05-17T02:05:17.426Z,82.2
2023-05-17T02:06:17.107Z,82.1
2023-05-17T02:07:16.686Z,82.4
2023-05-17T02:08:17.248Z,82.5
2023-05-17T02:09:16.817Z,82.6
2023-05-17T02:10:17.403Z,82.6
2023-05-17T02:11:16.972Z,82.6
2023-05-17T02:12:17.365Z,82.6
2023-05-17T02:13:16.947Z,82.6
2023-05-17T02:14:17.513Z,83.1
2023-05-17T02:15:17.055Z,83.2
2023-05-17T02:16:16.620Z,82.7
2023-05-17T02:17:17.251Z,82.8
2023-05-17T02:18:16.976Z,82.9
2023-05-17T02:19:16.634Z,82.9
2023-05-17T02:20:17.181Z,82.8
2023-05-17T02:21:17.168Z,83.1
2023-05-17T02:22:16.673Z,82.9
2023-05-17T02:23:17.337Z,83.0
2023-05-17T02:24:16.922Z,83.2
2023-05-17T02:25:17.540Z,83.4
2023-05-17T02:26:17.113Z,83.4
2023-05-17T02:27:16.676Z,83.4
2023-05-17T02:28:17.258Z,83.5
2023-05-17T02:29:16.896Z,83.7
2023-05-17T02:30:18.616Z,83.4
2023-05-17T02:31:17.160Z,83.5
2023-05-17T02:32:17.483Z,83.7
2023-05-17T02:33:17.305Z,83.8
2023-05-17T02:34:16.887Z,83.9
2023-05-17T02:35:17.452Z,84.0
2023-05-17T02:36:17.009Z,84.2
2023-05-17T02:37:16.556Z,84.3
2023-05-17T02:38:17.142Z,84.3
2023-05-17T02:39:16.724Z,84.1
2023-05-17T02:40:17.286Z,84.1
2023-05-17T02:41:16.908Z,84.0
2023-05-17T02:42:17.542Z,84.1
2023-05-17T02:43:17.092Z,83.9
2023-05-17T02:44:16.639Z,84.0
2023-05-17T02:45:17.203Z,84.1
2023-05-17T02:46:16.755Z,84.5
2023-05-17T02:47:17.393Z,84.2
2023-05-17T02:48:17.060Z,84.2
2023-05-17T02:49:16.652Z,84.3
2023-05-17T02:50:17.276Z,84.4
2023-05-17T02:51:16.851Z,84.3
2023-05-17T02:52:16.821Z,84.5
2023-05-17T02:53:17.380Z,84.2
2023-05-17T02:54:16.920Z,84.0
2023-05-17T02:55:17.474Z,84.4
2023-05-17T02:56:17.049Z,84.3
2023-05-17T02:57:16.580Z,83.3
2023-05-17T02:58:17.116Z,83.3
2023-05-17T02:59:16.640Z,84.0
2023-05-17T03:00:17.189Z,83.9
2023-05-17T03:01:16.728Z,84.1
2023-05-17T03:02:17.385Z,83.8
2023-05-17T03:03:17.276Z,84.0
2023-05-17T03:04:17.095Z,83.9
2023-05-17T03:05:16.683Z,83.8
2023-05-17T03:06:17.248Z,83.8
2023-05-17T03:07:16.799Z,84.1
2023-05-17T03:08:17.429Z,84.5
2023-05-17T03:09:16.987Z,84.2
2023-05-17T03:10:16.558Z,84.0
2023-05-17T03:11:17.131Z,83.9
2023-05-17T03:12:16.911Z,84.1
2023-05-17T03:13:17.537Z,84.8
2023-05-17T03:14:17.054Z,84.8
2023-05-17T03:15:16.626Z,84.4
2023-05-17T03:16:17.195Z,84.4
2023-05-17T03:17:16.789Z,84.4
2023-05-17T03:18:17.662Z,84.4
2023-05-17T03:19:17.445Z,84.4
2023-05-17T03:20:17.026Z,84.4
2023-05-17T03:21:16.584Z,84.5
2023-05-17T03:22:16.680Z,84.4
2023-05-17T03:23:17.245Z,84.4
2023-05-17T03:24:16.834Z,84.4
2023-05-17T03:25:17.409Z,84.7
2023-05-17T03:26:16.943Z,84.8
2023-05-17T03:27:17.582Z,85.1
2023-05-17T03:28:17.113Z,85.3
2023-05-17T03:29:16.648Z,85.1
2023-05-17T03:30:17.421Z,85.2
2023-05-17T03:31:17.133Z,85.5
2023-05-17T03:32:16.580Z,85.6
2023-05-17T03:33:17.323Z,85.5
2023-05-17T03:34:16.936Z,85.4
2023-05-17T03:35:17.519Z,85.4
2023-05-17T03:36:17.109Z,85.5
2023-05-17T03:37:16.658Z,85.6
2023-05-17T03:38:17.256Z,85.6
2023-05-17T03:39:16.811Z,85.6
2023-05-17T03:40:17.359Z,85.4
2023-05-17T03:41:16.880Z,85.4
2023-05-17T03:42:17.400Z,85.6
2023-05-17T03:43:17.005Z,86.0
2023-05-17T03:44:16.576Z,85.9
2023-05-17T03:45:17.132Z,85.5
2023-05-17T03:46:16.671Z,85.8
2023-05-17T03:47:17.224Z,85.9
2023-05-17T03:48:16.847Z,85.8
2023-05-17T03:49:17.874Z,85.9
2023-05-17T03:50:17.500Z,86.0
2023-05-17T03:51:17.072Z,86.1
2023-05-17T03:52:16.928Z,86.1
2023-05-17T03:53:17.548Z,86.4
2023-05-17T03:54:17.135Z,86.3
2023-05-17T03:55:16.675Z,86.5
2023-05-17T03:56:17.219Z,86.6
2023-05-17T03:57:16.771Z,86.4
2023-05-17T03:58:17.311Z,86.0
2023-05-17T03:59:16.853Z,86.1
2023-05-17T04:00:17.413Z,86.2
2023-05-17T04:01:17.004Z,86.3
2023-05-17T04:02:17.030Z,86.4
2023-05-17T04:03:20.098Z,86.5
2023-05-17T04:04:16.973Z,86.6
2023-05-17T04:05:16.840Z,86.6
2023-05-17T04:06:17.486Z,86.5
2023-05-17T04:07:17.033Z,86.5
2023-05-17T04:08:16.623Z,86.5
2023-05-17T04:09:17.226Z,86.5
2023-05-17T04:10:16.796Z,86.4
2023-05-17T04:11:17.323Z,86.4
2023-05-17T04:12:17.025Z,86.3
2023-05-17T04:13:16.572Z,86.1
2023-05-17T04:14:17.144Z,86.1
2023-05-17T04:15:16.732Z,86.1
2023-05-17T04:16:17.297Z,86.0
2023-05-17T04:17:17.252Z,85.9
2023-05-17T04:18:16.975Z,85.9
2023-05-17T04:19:16.774Z,85.9
2023-05-17T04:20:17.393Z,85.7
2023-05-17T04:21:16.967Z,85.4
2023-05-17T04:22:17.264Z,85.4
2023-05-17T04:23:16.809Z,85.2
2023-05-17T04:24:17.399Z,84.6
2023-05-17T04:25:16.966Z,84.8
2023-05-17T04:26:17.555Z,84.7
2023-05-17T04:27:17.120Z,84.8
2023-05-17T04:28:16.701Z,84.7
2023-05-17T04:29:17.255Z,83.9
2023-05-17T04:30:16.800Z,83.6
2023-05-17T04:31:17.344Z,83.7
2023-05-17T04:32:17.013Z,83.6
2023-05-17T04:33:16.717Z,83.5
2023-05-17T04:34:17.409Z,83.2
2023-05-17T04:35:17.004Z,83.0
2023-05-17T04:36:16.577Z,82.1
2023-05-17T04:37:17.204Z,81.9
2023-05-17T04:38:16.768Z,82.2
2023-05-17T04:39:17.316Z,81.9
2023-05-17T04:40:16.908Z,81.4
2023-05-17T04:41:17.489Z,80.9
2023-05-17T04:42:17.448Z,81.1
2023-05-17T04:43:16.971Z,80.7
2023-05-17T04:44:17.594Z,80.6
2023-05-17T04:45:17.171Z,80.1
2023-05-17T04:46:16.700Z,79.1
2023-05-17T04:47:17.242Z,79.9
2023-05-17T04:48:16.923Z,80.0
2023-05-17T04:49:16.540Z,79.8
2023-05-17T04:50:17.122Z,79.4
2023-05-17T04:51:16.665Z,79.1
2023-05-17T04:52:16.598Z,79.1
2023-05-17T04:53:17.186Z,79.1
2023-05-17T04:54:16.811Z,79.1
2023-05-17T04:55:17.385Z,79.6
2023-05-17T04:56:16.926Z,79.3
2023-05-17T04:57:17.473Z,78.7
2023-05-17T04:58:17.004Z,79.1
2023-05-17T04:59:16.549Z,79.0
2023-05-17T05:00:17.166Z,79.0
2023-05-17T05:01:16.732Z,78.8
2023-05-17T05:02:16.758Z,78.6
2023-05-17T05:03:17.512Z,78.4
2023-05-17T05:04:17.594Z,78.7
2023-05-17T05:05:17.284Z,78.8
2023-05-17T05:06:16.835Z,78.8
2023-05-17T05:07:17.365Z,78.9
2023-05-17T05:08:16.940Z,78.3
2023-05-17T05:09:17.499Z,79.0
2023-05-17T05:10:17.300Z,78.8
2023-05-17T05:11:16.837Z,78.7
2023-05-17T05:12:16.672Z,78.7
2023-05-17T05:13:17.221Z,78.5
2023-05-17T05:14:17.049Z,78.5
2023-05-17T05:15:16.657Z,78.1
2023-05-17T05:16:17.206Z,77.5
2023-05-17T05:17:16.762Z,78.0
2023-05-17T05:18:17.502Z,77.6
2023-05-17T05:19:17.320Z,77.1
2023-05-17T05:20:16.945Z,77.0
2023-05-17T05:21:17.495Z,76.9
2023-05-17T05:22:17.179Z,76.9
2023-05-17T05:23:16.728Z,77.2
2023-05-17T05:24:17.283Z,76.9
2023-05-17T05:25:16.824Z,76.5
2023-05-17T05:26:17.352Z,75.2
2023-05-17T05:27:16.885Z,75.3
2023-05-17T05:28:17.481Z,75.3
2023-05-17T05:29:17.062Z,75.8
2023-05-17T05:30:16.677Z,75.7
2023-05-17T05:31:17.237Z,75.5
2023-05-17T05:32:16.919Z,75.5
2023-05-17T05:33:17.775Z,76.0
2023-05-17T05:34:17.612Z,76.2
2023-05-17T05:35:17.157Z,75.8
2023-05-17T05:36:16.846Z,75.3
2023-05-17T05:37:18.911Z,75.6
2023-05-17T05:38:17.466Z,75.4
2023-05-17T05:39:17.060Z,75.2
2023-05-17T05:40:16.582Z,75.4
2023-05-17T05:41:17.161Z,75.3
2023-05-17T05:42:16.812Z,74.9
2023-05-17T05:43:17.373Z,74.6
2023-05-17T05:44:17.941Z,75.5
2023-05-17T05:45:17.502Z,75.3
2023-05-17T05:46:17.060Z,75.7
2023-05-17T05:47:16.618Z,75.2
2023-05-17T05:48:17.285Z,74.9
2023-05-17T05:49:16.911Z,75.2
2023-05-17T05:50:17.499Z,75.0
2023-05-17T05:51:17.119Z,75.1
2023-05-17T05:52:16.563Z,74.9
2023-05-17T05:53:20.053Z,74.5
2023-05-17T05:54:16.687Z,74.3
2023-05-17T05:55:17.253Z,74.5
2023-05-17T05:56:16.822Z,74.3
2023-05-17T05:57:17.396Z,74.6
2023-05-17T05:58:16.975Z,73.8
2023-05-17T05:59:16.627Z,73.8
2023-05-17T06:00:17.200Z,73.9
2023-05-17T06:01:16.768Z,74.3
2023-05-17T06:02:16.660Z,73.9
2023-05-17T06:03:17.214Z,73.7
2023-05-17T06:04:16.737Z,73.6
2023-05-17T06:05:17.425Z,73.2
2023-05-17T06:06:17.222Z,72.9
2023-05-17T06:07:16.820Z,73.2
2023-05-17T06:08:18.434Z,73.1
2023-05-17T06:09:16.982Z,73.1
2023-05-17T06:10:16.569Z,74.0
2023-05-17T06:11:17.118Z,73.5
2023-05-17T06:12:17.257Z,73.3
2023-05-17T06:13:16.820Z,72.8
2023-05-17T06:14:17.388Z,73.0
2023-05-17T06:15:16.952Z,73.0
2023-05-17T06:16:17.467Z,73.0
2023-05-17T06:17:17.047Z,72.8
2023-05-17T06:18:16.812Z,73.2
2023-05-17T06:19:17.598Z,73.7
2023-05-17T06:20:17.190Z,74.1
2023-05-17T06:21:16.749Z,73.7
2023-05-17T06:22:17.476Z,73.5
2023-05-17T06:23:17.137Z,72.8
2023-05-17T06:24:16.693Z,72.4
2023-05-17T06:25:17.266Z,72.4
2023-05-17T06:26:16.834Z,72.2
2023-05-17T06:27:17.417Z,71.7
2023-05-17T06:28:17.061Z,71.6
2023-05-17T06:29:16.616Z,72.2
2023-05-17T06:30:17.165Z,71.7
2023-05-17T06:31:19.144Z,72.0
2023-05-17T06:32:16.652Z,72.5
2023-05-17T06:33:17.390Z,73.1
2023-05-17T06:34:16.948Z,72.1
2023-05-17T06:35:17.503Z,71.7
2023-05-17T06:36:17.068Z,72.0
2023-05-17T06:37:16.843Z,73.7
2023-05-17T06:38:17.476Z,73.5
2023-05-17T06:39:17.057Z,72.6
2023-05-17T06:40:17.587Z,73.6
2023-05-17T06:41:17.182Z,73.6
2023-05-17T06:42:17.360Z,73.1
2023-05-17T06:43:16.944Z,72.1
2023-05-17T06:44:17.469Z,71.7
2023-05-17T06:45:17.035Z,72.2
2023-05-17T06:46:16.617Z,71.8
2023-05-17T06:47:17.227Z,70.8
2023-05-17T06:48:17.212Z,70.5
2023-05-17T06:49:16.828Z,70.9
2023-05-17T06:50:17.358Z,71.2
2023-05-17T06:51:16.922Z,70.6
2023-05-17T06:52:16.669Z,70.7
2023-05-17T06:53:17.316Z,70.6
2023-05-17T06:54:16.941Z,71.7
2023-05-17T06:55:17.483Z,71.5
2023-05-17T06:56:17.028Z,71.7
2023-05-17T06:57:16.581Z,71.6
2023-05-17T06:58:17.117Z,71.5
2023-05-17T06:59:16.689Z,71.2
2023-05-17T07:00:17.273Z,70.9
2023-05-17T07:01:16.838Z,71.0
2023-05-17T07:02:16.923Z,70.8
2023-05-17T07:03:17.680Z,70.7
2023-05-17T07:04:17.378Z,71.1
2023-05-17T07:05:17.014Z,71.6
2023-05-17T07:06:16.623Z,70.1
2023-05-17T07:07:17.185Z,70.3
2023-05-17T07:08:16.820Z,70.3
2023-05-17T07:09:17.413Z,70.0
2023-05-17T07:10:16.966Z,69.8
2023-05-17T07:11:16.537Z,69.9
2023-05-17T07:12:16.782Z,70.2
2023-05-17T07:13:17.324Z,71.0
2023-05-17T07:14:16.891Z,71.3
2023-05-17T07:15:17.460Z,71.3
2023-05-17T07:16:17.156Z,70.1
2023-05-17T07:17:16.715Z,71.0
2023-05-17T07:18:17.408Z,71.3
2023-05-17T07:19:17.465Z,69.5
2023-05-17T07:20:17.216Z,70.1
2023-05-17T07:21:17.838Z,69.5
2023-05-17T07:22:17.339Z,68.7
2023-05-17T07:23:16.913Z,69.4
2023-05-17T07:24:17.466Z,69.5
2023-05-17T07:25:17.023Z,69.3
2023-05-17T07:26:16.595Z,69.1
2023-05-17T07:27:17.158Z,68.8
2023-05-17T07:28:16.780Z,69.0
2023-05-17T07:29:17.412Z,69.0
2023-05-17T07:30:16.960Z,68.2
2023-05-17T07:31:17.542Z,68.3
2023-05-17T07:32:17.298Z,67.5
2023-05-17T07:33:16.900Z,66.5
2023-05-17T07:34:17.522Z,66.4
2023-05-17T07:35:19.234Z,65.6
2023-05-17T07:36:17.359Z,67.2
2023-05-17T07:37:17.012Z,67.9
2023-05-17T07:38:16.604Z,67.6
2023-05-17T07:39:17.199Z,66.8
2023-05-17T07:40:16.767Z,66.4
2023-05-17T07:41:17.388Z,65.1
2023-05-17T07:42:17.414Z,65.0
2023-05-17T07:43:16.969Z,64.5
2023-05-17T07:44:16.536Z,64.8
2023-05-17T07:45:17.120Z,64.4
2023-05-17T07:46:16.704Z,65.0
2023-05-17T07:47:17.381Z,64.7
2023-05-17T07:48:18.290Z,64.4
2023-05-17T07:49:17.049Z,63.4
2023-05-17T07:50:16.679Z,63.3
2023-05-17T07:51:17.293Z,64.5
2023-05-17T07:52:16.953Z,64.9
2023-05-17T07:53:17.507Z,64.1
2023-05-17T07:54:17.040Z,62.7
2023-05-17T07:55:17.482Z,62.8
2023-05-17T07:56:17.105Z,62.6
2023-05-17T07:57:16.907Z,62.0
2023-05-17T07:58:17.461Z,64.5
2023-05-17T07:59:17.001Z,64.7
2023-05-17T08:00:16.733Z,64.2
2023-05-17T08:01:17.340Z,63.7
2023-05-17T08:02:16.958Z,62.8
2023-05-17T08:03:17.951Z,62.9
2023-05-17T08:04:16.591Z,62.8
2023-05-17T08:05:17.181Z,60.9
2023-05-17T08:06:16.966Z,60.3
2023-05-17T08:07:16.573Z,59.5
2023-05-17T08:08:17.120Z,60.9
2023-05-17T08:09:16.659Z,63.2
2023-05-17T08:10:17.241Z,63.5
2023-05-17T08:11:16.779Z,62.8
2023-05-17T08:12:17.541Z,61.8
2023-05-17T08:13:17.126Z,61.6
2023-05-17T08:14:16.771Z,61.0
2023-05-17T08:15:17.376Z,60.5
2023-05-17T08:16:16.945Z,60.9
2023-05-17T08:17:17.507Z,60.0
2023-05-17T08:18:17.459Z,58.3
2023-05-17T08:19:17.390Z,58.7
2023-05-17T08:20:17.037Z,58.4
2023-05-17T08:21:16.607Z,58.2
2023-05-17T08:22:16.564Z,58.3
2023-05-17T08:23:17.132Z,57.3
2023-05-17T08:24:16.763Z,58.0
2023-05-17T08:25:17.435Z,58.6
2023-05-17T08:26:16.952Z,59.4
2023-05-17T08:27:17.516Z,59.8
2023-05-17T08:28:17.060Z,60.1
2023-05-17T08:29:16.618Z,60.0
2023-05-17T08:30:29.363Z,59.7
2023-05-17T08:31:17.177Z,60.5
2023-05-17T08:32:17.037Z,60.8
2023-05-17T08:33:16.812Z,62.3
2023-05-17T08:34:17.580Z,61.1
2023-05-17T08:35:17.137Z,61.5
2023-05-17T08:36:16.706Z,64.8
2023-05-17T08:37:17.323Z,66.2
2023-05-17T08:38:20.632Z,65.7
2023-05-17T08:39:17.384Z,66.0
2023-05-17T08:40:17.037Z,65.4
2023-05-17T08:41:16.738Z,64.8
2023-05-17T08:42:17.357Z,64.9
2023-05-17T08:43:16.920Z,63.5
2023-05-17T08:44:17.470Z,65.3
2023-05-17T08:45:17.024Z,65.3
2023-05-17T08:46:16.616Z,64.5
2023-05-17T08:47:17.246Z,65.4
2023-05-17T08:48:16.946Z,65.7
2023-05-17T08:49:16.878Z,65.9
2023-05-17T08:50:17.530Z,66.4
2023-05-17T08:51:17.123Z,66.1
2023-05-17T08:52:17.516Z,66.4
2023-05-17T08:53:17.137Z,66.7
2023-05-17T08:54:16.670Z,66.8
2023-05-17T08:55:17.213Z,66.3
2023-05-17T08:56:16.849Z,65.8
2023-05-17T08:57:17.402Z,65.6
2023-05-17T08:58:16.962Z,65.8
2023-05-17T08:59:17.521Z,66.6
2023-05-17T09:00:17.111Z,67.1
2023-05-17T09:01:16.678Z,66.9
2023-05-17T09:02:17.491Z,66.8
2023-05-17T09:03:17.173Z,66.7
2023-05-17T09:04:16.876Z,66.1
2023-05-17T09:05:17.692Z,65.9
2023-05-17T09:06:17.267Z,65.7
2023-05-17T09:07:17.618Z,65.7
2023-05-17T09:08:17.191Z,65.7
2023-05-17T09:09:16.746Z,64.2
2023-05-17T09:10:17.321Z,64.3
2023-05-17T09:11:16.881Z,64.4
2023-05-17T09:12:16.983Z,65.5
2023-05-17T09:13:16.551Z,66.5
2023-05-17T09:14:17.093Z,66.3
2023-05-17T09:15:16.662Z,66.1
2023-05-17T09:16:17.236Z,65.4
2023-05-17T09:17:16.752Z,65.7
2023-05-17T09:18:19.893Z,65.2
2023-05-17T09:19:18.181Z,65.5
2023-05-17T09:20:16.901Z,65.9
2023-05-17T09:21:17.468Z,66.0
2023-05-17T09:22:17.224Z,65.1
2023-05-17T09:23:16.794Z,65.5
2023-05-17T09:24:17.330Z,66.1
2023-05-17T09:25:16.883Z,66.4
2023-05-17T09:26:17.430Z,66.7
2023-05-17T09:27:16.990Z,66.2
2023-05-17T09:28:16.540Z,66.0
2023-05-17T09:29:17.186Z,66.5
2023-05-17T09:30:16.755Z,66.2
2023-05-17T09:31:17.285Z,67.0
2023-05-17T09:32:17.461Z,66.7
2023-05-17T09:33:19.274Z,66.6
2023-05-17T09:34:16.825Z,67.0
2023-05-17T09:35:17.390Z,66.8
2023-05-17T09:36:16.955Z,67.6
2023-05-17T09:37:17.516Z,67.0
2023-05-17T09:38:17.160Z,66.5
2023-05-17T09:39:16.773Z,66.8
2023-05-17T09:40:17.333Z,67.0
2023-05-17T09:41:16.872Z,66.7
2023-05-17T09:42:16.754Z,66.5
2023-05-17T09:43:17.453Z,66.5
2023-05-17T09:44:17.330Z,66.8
2023-05-17T09:45:16.861Z,66.7
2023-05-17T09:46:17.455Z,66.2
2023-05-17T09:47:16.990Z,66.5
2023-05-17T09:48:16.904Z,66.3
2023-05-17T09:49:16.887Z,66.5
2023-05-17T09:50:17.492Z,66.3
2023-05-17T09:51:17.065Z,66.8
2023-05-17T09:52:17.313Z,66.4
2023-05-17T09:53:16.890Z,66.5
2023-05-17T09:54:17.446Z,66.5
2023-05-17T09:55:17.025Z,66.7
2023-05-17T09:56:16.571Z,66.6
2023-05-17T09:57:17.119Z,66.6
2023-05-17T09:58:16.667Z,66.5
2023-05-17T09:59:17.307Z,67.3
2023-05-17T10:00:16.892Z,67.3
2023-05-17T10:01:17.497Z,67.2
2023-05-17T10:02:17.166Z,67.5
2023-05-17T10:03:17.024Z,67.5
2023-05-17T10:04:16.685Z,67.6
2023-05-17T10:05:17.352Z,67.7
2023-05-17T10:06:44.019Z,67.7
2023-05-17T10:07:17.445Z,67.4
2023-05-17T10:08:17.014Z,67.9
2023-05-17T10:09:16.562Z,67.9
2023-05-17T10:10:17.117Z,68.0
2023-05-17T10:11:16.659Z,67.9
2023-05-17T10:12:16.920Z,68.2
2023-05-17T10:13:17.485Z,68.0
2023-05-17T10:14:17.046Z,68.5
2023-05-17T10:15:16.696Z,68.9
2023-05-17T10:16:17.289Z,68.7
2023-05-17T10:17:16.866Z,68.4
2023-05-17T10:18:17.621Z,68.5
2023-05-17T10:19:17.545Z,68.4
2023-05-17T10:20:17.651Z,68.1
2023-05-17T10:21:17.353Z,67.6
2023-05-17T10:22:24.091Z,67.9
2023-05-17T10:23:16.681Z,68.0
2023-05-17T10:24:17.291Z,68.3
2023-05-17T10:25:16.860Z,68.6
2023-05-17T10:26:17.398Z,68.7
2023-05-17T10:27:16.955Z,67.9
2023-05-17T10:28:17.536Z,68.6
2023-05-17T10:29:17.122Z,68.9
2023-05-17T10:30:16.802Z,68.8
2023-05-17T10:31:17.456Z,68.8
2023-05-17T10:32:17.042Z,69.1
2023-05-17T10:33:16.918Z,68.8
2023-05-17T10:34:16.647Z,68.7
2023-05-17T10:35:17.264Z,68.5
2023-05-17T10:36:16.817Z,68.7
2023-05-17T10:37:17.369Z,68.7
2023-05-17T10:38:16.929Z,68.7
2023-05-17T10:39:17.459Z,68.7
2023-05-17T10:40:17.054Z,68.7
2023-05-17T10:41:16.591Z,68.3
2023-05-17T10:42:16.797Z,68.4
2023-05-17T10:43:17.350Z,68.8
2023-05-17T10:44:16.935Z,68.6
2023-05-17T10:45:17.512Z,68.8
2023-05-17T10:46:17.121Z,68.7
2023-05-17T10:47:16.672Z,68.5
2023-05-17T10:48:17.452Z,69.0
2023-05-17T10:49:20.257Z,69.1
2023-05-17T10:50:16.983Z,69.1
2023-05-17T10:51:16.566Z,69.2
2023-05-17T10:52:17.234Z,69.3
2023-05-17T10:53:16.808Z,69.2
2023-05-17T10:54:17.378Z,69.2
2023-05-17T10:55:16.953Z,69.2
2023-05-17T10:56:17.522Z,68.8
2023-05-17T10:57:17.119Z,69.0
2023-05-17T10:58:16.700Z,69.0
2023-05-17T10:59:17.286Z,69.2
2023-05-17T11:00:16.964Z,69.1
2023-05-17T11:01:16.551Z,69.2
2023-05-17T11:02:17.142Z,69.1
2023-05-17T11:03:16.773Z,69.0
2023-05-17T11:04:17.410Z,68.6
2023-05-17T11:05:17.137Z,68.9
2023-05-17T11:06:25.961Z,69.0
2023-05-17T11:07:16.717Z,68.8
2023-05-17T11:08:17.758Z,68.7
2023-05-17T11:09:17.367Z,68.9
2023-05-17T11:10:17.098Z,68.6
2023-05-17T11:11:16.676Z,68.3
2023-05-17T11:12:17.426Z,68.1
2023-05-17T11:13:16.967Z,68.4
2023-05-17T11:14:16.549Z,68.4
2023-05-17T11:15:17.124Z,68.4
2023-05-17T11:16:18.414Z,68.0
2023-05-17T11:17:16.984Z,68.5
2023-05-17T11:18:30.660Z,68.3
2023-05-17T11:19:17.178Z,68.3
2023-05-17T11:20:17.723Z,68.2
2023-05-17T11:21:17.350Z,67.9
2023-05-17T11:22:17.192Z,68.4
2023-05-17T11:23:16.748Z,69.0
2023-05-17T11:24:17.315Z,68.8
2023-05-17T11:25:16.868Z,68.5
2023-05-17T11:26:17.491Z,68.0
2023-05-17T11:27:17.031Z,68.1
2023-05-17T11:28:16.569Z,67.9
2023-05-17T11:29:17.117Z,67.6
2023-05-17T11:30:16.682Z,68.3
2023-05-17T11:31:17.250Z,68.0
2023-05-17T11:32:17.038Z,67.3
2023-05-17T11:33:33.394Z,67.6
2023-05-17T11:34:17.618Z,68.0
2023-05-17T11:35:17.193Z,68.0
2023-05-17T11:36:16.795Z,68.0
2023-05-17T11:37:17.378Z,67.6
2023-05-17T11:38:16.912Z,67.7
2023-05-17T11:39:17.476Z,67.7
2023-05-17T11:40:17.039Z,67.9
2023-05-17T11:41:27.382Z,68.3
2023-05-17T11:42:17.506Z,68.3
2023-05-17T11:43:17.099Z,68.0
2023-05-17T11:44:16.632Z,68.1
2023-05-17T11:45:17.185Z,67.4
2023-05-17T11:46:16.756Z,67.6
2023-05-17T11:47:17.374Z,67.2
2023-05-17T11:48:17.205Z,66.7
2023-05-17T11:49:35.528Z,66.6
2023-05-17T11:50:17.272Z,66.9
2023-05-17T11:51:16.816Z,67.1
2023-05-17T11:52:16.777Z,66.7
2023-05-17T11:53:17.330Z,65.9
2023-05-17T11:54:16.934Z,66.4
2023-05-17T11:55:17.502Z,65.6
2023-05-17T11:56:17.066Z,66.0
2023-05-17T11:57:16.641Z,65.8
2023-05-17T11:58:17.252Z,64.7
2023-05-17T11:59:16.792Z,65.2
2023-05-17T12:00:17.355Z,64.9
2023-05-17T12:01:16.915Z,65.2
2023-05-17T12:02:17.178Z,64.8
2023-05-17T12:03:16.712Z,65.2
2023-05-17T12:04:17.356Z,65.1
2023-05-17T12:05:16.935Z,64.9
2023-05-17T12:06:17.568Z,64.7
2023-05-17T12:07:17.193Z,64.7
2023-05-17T12:08:16.765Z,64.8
2023-05-17T12:09:17.317Z,64.9
2023-05-17T12:10:16.863Z,64.7
2023-05-17T12:11:17.406Z,65.0
2023-05-17T12:12:17.061Z,63.9
2023-05-17T12:13:16.656Z,64.0
2023-05-17T12:14:17.229Z,63.9
2023-05-17T12:15:16.794Z,64.5
2023-05-17T12:16:18.633Z,64.2
2023-05-17T12:17:17.170Z,63.9
2023-05-17T12:18:16.880Z,63.9
2023-05-17T12:19:16.736Z,64.1
2023-05-17T12:20:17.717Z,63.9
2023-05-17T12:21:17.321Z,64.9
2023-05-17T12:22:16.990Z,63.7
2023-05-17T12:23:16.601Z,63.6
2023-05-17T12:24:17.269Z,63.5
2023-05-17T12:25:16.863Z,63.4
2023-05-17T12:26:17.448Z,63.6
2023-05-17T12:27:16.996Z,63.0
2023-05-17T12:28:16.561Z,63.2
2023-05-17T12:29:17.169Z,63.6
2023-05-17T12:30:16.803Z,63.9
2023-05-17T12:31:17.385Z,64.2
2023-05-17T12:32:16.976Z,63.7
2023-05-17T12:33:16.661Z,63.6
2023-05-17T12:34:17.469Z,64.1
2023-05-17T12:35:17.075Z,63.7
2023-05-17T12:36:16.664Z,63.3
2023-05-17T12:37:17.247Z,63.5
2023-05-17T12:38:16.794Z,63.1
2023-05-17T12:39:17.346Z,63.3
2023-05-17T12:40:16.901Z,63.6
2023-05-17T12:41:17.462Z,64.2
2023-05-17T12:42:17.005Z,63.3
2023-05-17T12:43:16.582Z,63.0
2023-05-17T12:44:17.331Z,63.2
2023-05-17T12:45:16.880Z,63.3
2023-05-17T12:46:17.474Z,62.9
2023-05-17T12:47:17.033Z,62.5
2023-05-17T12:48:16.802Z,63.0
2023-05-17T12:49:17.656Z,63.2
2023-05-17T12:50:17.263Z,62.6
2023-05-17T12:51:16.846Z,62.8
2023-05-17T12:52:16.769Z,63.2
2023-05-17T12:53:17.448Z,63.0
2023-05-17T12:54:16.989Z,62.7
2023-05-17T12:55:16.555Z,63.1
2023-05-17T12:56:17.116Z,63.6
2023-05-17T12:57:16.655Z,63.3
2023-05-17T12:58:17.179Z,63.1
2023-05-17T12:59:16.741Z,62.9
2023-05-17T13:00:17.314Z,63.2
2023-05-17T13:01:16.908Z,63.2
2023-05-17T13:02:17.027Z,63.1
2023-05-17T13:03:16.820Z,63.1
2023-05-17T13:04:17.476Z,64.3
2023-05-17T13:05:17.108Z,64.4
2023-05-17T13:06:16.657Z,63.8
2023-05-17T13:07:17.256Z,63.9
2023-05-17T13:08:16.831Z,63.6
2023-05-17T13:09:17.413Z,63.4
2023-05-17T13:10:17.021Z,63.3
2023-05-17T13:11:16.593Z,63.0
2023-05-17T13:12:17.037Z,62.7
2023-05-17T13:13:16.606Z,62.9
2023-05-17T13:14:17.162Z,62.8
2023-05-17T13:15:16.731Z,62.8
2023-05-17T13:16:17.375Z,62.2
2023-05-17T13:17:16.956Z,62.5
2023-05-17T13:18:17.684Z,62.5